Time;durP1;ratioP1;P1;durP2;ratioP2;P2;SDS_P1;SDS_P2;PMS_P1;PMS_P2;Temp;Humidity;BMP_temperature;BMP_pressure;BME280_temperature;BME280_humidity;BME280_pressure;Samples;Min_cycle;Max_cycle;Signal;HPM_P1;HPM_P2
2023/01/04 00:01:09;;;;;;;27.13;24.13;;;8.50;99.90;;;;;;6250594;28;20493;-62
2023/01/04 00:04:12;;;;;;;29.70;25.23;;;8.50;99.90;;;;;;6250090;28;20482;-62
2023/01/04 00:07:16;;;;;;;28.77;25.43;;;8.50;99.90;;;;;;6251170;28;20475;-61
2023/01/04 00:10:19;;;;;;;29.50;26.40;;;8.50;99.90;;;;;;6274861;28;20485;-62
2023/01/04 00:13:24;;;;;;;32.20;25.73;;;8.50;99.90;;;;;;6274767;28;20500;-62
2023/01/04 00:16:28;;;;;;;30.67;25.60;;;8.40;99.90;;;;;;6267952;28;20462;-62
2023/01/04 00:19:32;;;;;;;26.33;22.40;;;8.40;99.90;;;;;;6274469;28;20557;-61
2023/01/04 00:22:35;;;;;;;25.80;21.90;;;8.40;99.90;;;;;;6274614;28;20798;-61
2023/01/04 00:25:38;;;;;;;24.70;22.30;;;8.40;99.90;;;;;;6283620;28;21011;-62
2023/01/04 00:28:43;;;;;;;24.03;20.00;;;8.40;99.90;;;;;;6299590;28;20492;-61
2023/01/04 00:31:55;;;;;;;26.10;22.13;;;8.40;99.90;;;;;;6299461;28;20496;-62
2023/01/04 00:34:59;;;;;;;21.90;19.73;;;8.40;99.90;;;;;;6299162;28;20810;-61
2023/01/04 00:38:02;;;;;;;22.30;20.13;;;8.40;99.90;;;;;;6299210;28;20936;-61
2023/01/04 00:41:06;;;;;;;23.40;20.83;;;8.30;99.90;;;;;;6271433;28;20458;-61
2023/01/04 00:44:12;;;;;;;24.47;19.70;;;8.30;99.90;;;;;;6264511;28;20539;-61
2023/01/04 00:47:15;;;;;;;25.43;20.67;;;8.30;99.90;;;;;;6265295;28;20482;-61
2023/01/04 00:50:18;;;;;;;23.37;20.63;;;8.30;99.90;;;;;;6262463;28;20478;-61
2023/01/04 00:53:21;;;;;;;24.87;20.37;;;8.20;99.90;;;;;;6260769;28;20540;-62
2023/01/04 00:56:25;;;;;;;27.40;22.00;;;8.20;99.90;;;;;;6254074;28;20475;-62
2023/01/04 00:59:29;;;;;;;24.57;22.07;;;8.30;99.90;;;;;;6275334;28;20469;-61
2023/01/04 01:02:32;;;;;;;24.37;20.90;;;8.30;99.90;;;;;;6279650;28;20976;-62
2023/01/04 01:05:36;;;;;;;27.60;21.87;;;8.30;99.90;;;;;;6278858;28;20545;-61
2023/01/04 01:08:39;;;;;;;24.80;21.60;;;8.30;99.90;;;;;;6278726;28;20470;-61
2023/01/04 01:11:43;;;;;;;25.07;21.90;;;8.30;99.90;;;;;;6278826;28;21003;-61
2023/01/04 01:14:48;;;;;;;25.00;22.27;;;8.40;99.90;;;;;;6279054;28;20764;-62
2023/01/04 01:17:51;;;;;;;24.17;21.33;;;8.30;99.90;;;;;;6277370;28;20918;-61
2023/01/04 01:20:54;;;;;;;22.17;19.90;;;8.30;99.90;;;;;;6277919;28;20442;-61
2023/01/04 01:23:57;;;;;;;21.33;19.13;;;8.20;99.90;;;;;;6278558;28;20450;-61
2023/01/04 01:27:00;;;;;;;23.03;20.57;;;8.20;99.90;;;;;;6299063;28;20437;-61
2023/01/04 01:30:06;;;;;;;23.80;21.53;;;8.20;99.90;;;;;;6303912;28;20461;-61
2023/01/04 01:33:11;;;;;;;24.30;19.97;;;8.20;99.90;;;;;;6303772;28;20472;-60
2023/01/04 01:36:16;;;;;;;24.30;21.70;;;8.20;99.90;;;;;;6302785;28;20780;-61
2023/01/04 01:39:20;;;;;;;23.83;21.23;;;8.30;99.90;;;;;;6302637;28;20469;-61
2023/01/04 01:42:23;;;;;;;27.10;21.20;;;8.30;99.90;;;;;;6302713;28;20473;-61
2023/01/04 01:45:31;;;;;;;29.30;20.67;;;8.30;99.90;;;;;;6276246;28;20469;-61
2023/01/04 01:48:34;;;;;;;24.10;21.63;;;8.30;99.90;;;;;;6271678;28;20827;-61
2023/01/04 01:51:38;;;;;;;23.03;20.33;;;8.20;99.90;;;;;;6262701;28;20470;-61
2023/01/04 01:54:46;;;;;;;23.87;21.37;;;8.20;99.90;;;;;;6265500;28;20481;-61
2023/01/04 01:57:51;;;;;;;23.77;21.27;;;8.20;99.90;;;;;;6261393;28;20486;-61
2023/01/04 02:00:56;;;;;;;21.67;18.90;;;8.20;99.90;;;;;;6277937;28;20481;-61
2023/01/04 02:03:59;;;;;;;24.13;21.20;;;8.20;99.90;;;;;;6278433;28;20470;-61
2023/01/04 02:07:03;;;;;;;23.40;21.00;;;8.20;99.90;;;;;;6278819;28;20465;-62
2023/01/04 02:10:07;;;;;;;23.50;21.07;;;8.20;99.90;;;;;;6275814;28;20828;-63
2023/01/04 02:13:14;;;;;;;28.03;21.63;;;8.20;99.90;;;;;;6277671;28;20469;-63
2023/01/04 02:16:30;;;;;;;28.07;25.33;;;8.20;99.90;;;;;;6277949;28;20470;-63
2023/01/04 02:20:05;;;;;;;23.57;21.13;;;8.20;99.90;;;;;;6277490;28;20496;-63
2023/01/04 02:23:50;;;;;;;27.37;21.03;;;8.20;99.90;;;;;;6262068;28;20470;-63
2023/01/04 02:27:35;;;;;;;24.50;19.50;;;8.10;99.90;;;;;;6297227;28;20454;-62
2023/01/04 02:31:07;;;;;;;24.20;21.30;;;8.20;99.90;;;;;;6300623;28;20564;-63
2023/01/04 02:34:19;;;;;;;23.17;20.73;;;8.20;99.90;;;;;;6300653;28;20466;-63
2023/01/04 02:37:31;;;;;;;25.23;20.37;;;8.20;99.90;;;;;;6301422;28;20800;-62
2023/01/04 02:40:45;;;;;;;25.93;20.47;;;8.20;99.90;;;;;;6307346;28;20560;-62
2023/01/04 02:50:29;;;;;;;22.37;20.20;;;8.20;99.90;;;;;;6302185;28;20465;-63
2023/01/04 02:50:51;;;;;;;20.37;18.23;;;8.30;99.90;;;;;;6301654;28;20489;-63
2023/01/04 02:53:54;;;;;;;21.80;19.53;;;8.30;99.90;;;;;;6301114;28;20459;-63
2023/01/04 02:57:31;;;;;;;22.40;20.17;;;8.40;99.90;;;;;;6301964;28;20448;-62
2023/01/04 03:07:48;;;;;;;20.27;18.27;;;8.40;99.90;;;;;;6298306;28;20544;-63
2023/01/04 03:10:59;;;;;;;21.83;19.50;;;8.50;99.90;;;;;;6276409;28;20482;-63
2023/01/04 03:14:06;;;;;;;22.07;19.70;;;8.50;99.90;;;;;;6276182;28;20474;-63
2023/01/04 03:17:34;;;;;;;26.30;20.30;;;8.50;99.90;;;;;;6276224;28;20605;-62
2023/01/04 03:20:38;;;;;;;19.47;17.47;;;8.50;99.90;;;;;;6275900;28;20969;-63
2023/01/04 03:37:18;;;;;;;25.00;19.53;;;8.60;99.90;;;;;;6300497;28;20473;-62
2023/01/04 03:50:45;;;;;;;24.40;19.77;;;8.60;99.90;;;;;;6300272;28;21007;-62
2023/01/04 03:53:55;;;;;;;22.37;19.97;;;8.50;99.90;;;;;;6300330;28;20464;-62
2023/01/04 03:56:59;;;;;;;19.87;17.83;;;8.50;99.90;;;;;;6300133;28;20495;-60
2023/01/04 04:00:08;;;;;;;21.73;18.50;;;8.50;99.90;;;;;;6300233;28;20441;-60
2023/01/04 04:03:11;;;;;;;23.73;20.30;;;8.60;99.90;;;;;;6300658;28;20480;-63
2023/01/04 04:09:36;;;;;;;21.90;19.50;;;8.60;99.90;;;;;;6293428;28;20553;-62
2023/01/04 04:12:39;;;;;;;19.10;17.07;;;8.60;99.90;;;;;;6275664;28;20995;-60
2023/01/04 04:15:43;;;;;;;21.73;17.70;;;8.60;99.90;;;;;;6275660;28;20943;-62
2023/01/04 04:18:46;;;;;;;21.80;19.27;;;8.60;99.90;;;;;;6275187;28;20466;-63
2023/01/04 04:21:50;;;;;;;20.00;17.90;;;8.60;99.90;;;;;;6275145;28;20466;-63
2023/01/04 04:24:54;;;;;;;21.30;18.53;;;8.60;99.90;;;;;;6277610;28;20952;-63
2023/01/04 04:27:57;;;;;;;22.83;18.70;;;8.60;99.90;;;;;;6299899;28;20801;-61
2023/01/04 04:31:01;;;;;;;19.40;17.40;;;8.60;99.90;;;;;;6299420;28;20488;-60
2023/01/04 04:34:05;;;;;;;23.83;18.73;;;8.60;99.90;;;;;;6298714;28;20473;-60
2023/01/04 04:37:08;;;;;;;24.30;19.47;;;8.50;99.90;;;;;;6299264;28;20477;-59
2023/01/04 04:41:37;;;;;;;22.00;19.00;;;8.50;99.90;;;;;;6299364;28;20488;-59
2023/01/04 04:43:41;;;;;;;21.03;17.07;;;8.50;99.90;;;;;;6299074;28;20476;-59
2023/01/04 04:46:45;;;;;;;26.43;21.57;;;8.50;99.90;;;;;;6299704;28;20503;-59
2023/01/04 04:49:48;;;;;;;30.40;22.90;;;8.50;99.90;;;;;;6302268;28;20487;-59
2023/01/04 04:52:51;;;;;;;28.97;22.87;;;8.50;99.90;;;;;;6307823;28;20465;-61
2023/01/04 04:56:00;;;;;;;25.90;20.03;;;8.60;99.90;;;;;;6300993;28;20496;-60
2023/01/04 04:59:03;;;;;;;22.03;19.77;;;8.60;99.90;;;;;;6299142;28;20477;-61
2023/01/04 05:02:06;;;;;;;23.57;19.67;;;8.60;99.90;;;;;;6299244;28;20807;-61
2023/01/04 05:05:10;;;;;;;25.20;19.20;;;8.60;99.90;;;;;;6298988;28;20547;-61
2023/01/04 05:08:13;;;;;;;21.50;19.30;;;8.60;99.90;;;;;;6299000;28;20552;-61
2023/01/04 05:12:58;;;;;;;19.13;16.77;;;8.60;99.90;;;;;;6269046;28;20568;-62
2023/01/04 05:14:40;;;;;;;22.60;20.20;;;8.70;99.90;;;;;;6274230;28;20557;-62
2023/01/04 05:17:44;;;;;;;21.17;18.87;;;8.70;99.90;;;;;;6273646;28;20493;-62
2023/01/04 05:20:47;;;;;;;18.50;16.80;;;8.60;99.90;;;;;;6274269;28;20458;-62
2023/01/04 05:23:50;;;;;;;19.70;17.40;;;8.70;99.90;;;;;;6273946;28;20467;-62
2023/01/04 05:26:55;;;;;;;21.50;19.27;;;8.70;99.90;;;;;;6293789;28;20441;-61
2023/01/04 05:33:20;;;;;;;20.40;17.50;;;8.70;99.90;;;;;;6299643;28;20811;-62
2023/01/04 05:36:23;;;;;;;19.00;16.17;;;8.70;99.90;;;;;;6298728;28;20774;-62
2023/01/04 05:39:27;;;;;;;18.17;15.33;;;8.70;99.90;;;;;;6299106;28;20476;-62
2023/01/04 05:42:31;;;;;;;16.07;14.43;;;8.70;99.90;;;;;;6298469;28;20473;-62
2023/01/04 05:45:34;;;;;;;16.43;14.70;;;8.70;99.90;;;;;;6301388;28;20465;-63
2023/01/04 05:48:38;;;;;;;15.13;13.63;;;8.70;99.90;;;;;;6303065;28;20570;-63
2023/01/04 05:51:41;;;;;;;13.70;12.43;;;8.70;99.90;;;;;;6303267;28;20475;-63
2023/01/04 05:54:44;;;;;;;15.00;13.40;;;8.60;99.90;;;;;;6303303;28;20480;-63
2023/01/04 05:57:50;;;;;;;17.30;13.90;;;8.60;99.90;;;;;;6303431;28;20469;-63
2023/01/04 06:00:54;;;;;;;21.20;14.57;;;8.60;99.90;;;;;;6303702;28;20469;-63
2023/01/04 06:03:57;;;;;;;15.77;14.20;;;8.70;99.90;;;;;;6304034;28;20534;-61
2023/01/04 06:07:00;;;;;;;16.27;14.47;;;8.70;99.90;;;;;;6302974;28;20485;-60
2023/01/04 06:10:04;;;;;;;14.30;12.40;;;8.70;99.90;;;;;;6291985;28;20466;-59
2023/01/04 06:13:09;;;;;;;19.90;15.27;;;8.70;99.90;;;;;;6274652;28;20466;-59
2023/01/04 06:16:13;;;;;;;14.90;13.43;;;8.70;99.90;;;;;;6278945;28;20489;-63
2023/01/04 06:19:16;;;;;;;18.03;13.07;;;8.70;99.90;;;;;;6278170;28;20481;-61
2023/01/04 06:22:20;;;;;;;16.40;12.97;;;8.70;99.90;;;;;;6277447;28;20997;-62
2023/01/04 06:25:23;;;;;;;16.40;13.47;;;8.70;99.90;;;;;;6285033;28;20999;-64
2023/01/04 06:28:29;;;;;;;16.50;13.10;;;8.70;99.90;;;;;;6302305;28;20477;-59
2023/01/04 06:31:37;;;;;;;15.50;13.20;;;8.60;99.90;;;;;;6302871;28;20477;-61
2023/01/04 06:34:40;;;;;;;16.57;12.70;;;8.60;99.90;;;;;;6302440;28;20481;-62
2023/01/04 06:37:43;;;;;;;19.50;12.40;;;8.60;99.90;;;;;;6302447;28;20480;-62
2023/01/04 06:40:46;;;;;;;13.30;11.30;;;8.60;99.90;;;;;;6302005;28;20476;-62
2023/01/04 06:43:51;;;;;;;14.80;12.70;;;8.60;99.90;;;;;;6303468;28;20815;-61
2023/01/04 06:46:54;;;;;;;15.40;13.27;;;8.50;99.90;;;;;;6314119;28;20480;-61
2023/01/04 06:49:57;;;;;;;13.57;11.30;;;8.60;99.90;;;;;;6318944;28;20473;-61
2023/01/04 06:53:01;;;;;;;12.10;10.90;;;8.50;99.90;;;;;;6313005;28;20538;-59
2023/01/04 06:56:04;;;;;;;18.40;12.73;;;8.60;99.90;;;;;;6300647;28;20477;-60
2023/01/04 06:59:09;;;;;;;14.47;12.03;;;8.60;99.90;;;;;;6301675;28;20790;-61
2023/01/04 07:02:14;;;;;;;18.20;13.53;;;8.70;99.90;;;;;;6301644;28;20476;-61
2023/01/04 07:05:18;;;;;;;19.53;15.03;;;8.70;99.90;;;;;;6301932;28;20465;-59
2023/01/04 07:08:21;;;;;;;20.07;15.10;;;8.60;99.90;;;;;;6301052;28;20473;-60
2023/01/04 07:11:24;;;;;;;16.90;15.30;;;8.60;99.90;;;;;;6291660;28;20482;-60
2023/01/04 07:14:29;;;;;;;25.37;19.27;;;8.50;99.90;;;;;;6276330;28;20824;-61
2023/01/04 07:17:32;;;;;;;25.67;22.97;;;8.50;99.90;;;;;;6276418;28;20742;-60
2023/01/04 07:20:36;;;;;;;28.57;24.20;;;8.50;99.90;;;;;;6276386;28;20469;-58
2023/01/04 07:23:39;;;;;;;26.50;23.60;;;8.50;99.90;;;;;;6276193;28;20481;-59
2023/01/04 07:26:42;;;;;;;25.13;22.53;;;8.50;99.90;;;;;;6294132;28;20465;-58
2023/01/04 07:29:46;;;;;;;26.27;23.17;;;8.50;99.90;;;;;;6301064;28;20473;-58
2023/01/04 07:32:52;;;;;;;29.83;24.00;;;8.50;99.90;;;;;;6300582;28;20496;-59
2023/01/04 07:35:55;;;;;;;25.80;23.07;;;8.50;99.90;;;;;;6301059;28;20453;-59
2023/01/04 07:38:59;;;;;;;27.33;24.17;;;8.40;99.90;;;;;;6300549;28;20843;-59
2023/01/04 07:42:03;;;;;;;31.17;25.37;;;8.40;99.90;;;;;;6300741;28;20445;-59
2023/01/04 07:45:08;;;;;;;31.73;26.57;;;8.40;99.90;;;;;;6300552;28;20440;-59
2023/01/04 07:48:11;;;;;;;29.33;25.03;;;8.40;99.90;;;;;;6300479;28;20464;-59
2023/01/04 07:51:14;;;;;;;30.00;25.97;;;8.40;99.90;;;;;;6300799;28;20468;-59
2023/01/04 07:54:18;;;;;;;29.13;26.00;;;8.20;99.90;;;;;;6300764;28;20465;-59
2023/01/04 07:57:22;;;;;;;30.97;26.50;;;8.20;99.90;;;;;;6300304;28;20469;-60
2023/01/04 08:00:27;;;;;;;34.83;26.13;;;8.20;99.90;;;;;;6300627;28;20492;-59
2023/01/04 08:03:30;;;;;;;37.27;29.20;;;8.20;99.90;;;;;;6300200;28;20534;-62
2023/01/04 08:06:33;;;;;;;37.00;31.07;;;8.30;99.90;;;;;;6299939;28;20469;-62
2023/01/04 08:09:37;;;;;;;31.27;27.27;;;8.40;99.90;;;;;;6283502;28;20471;-62
2023/01/04 08:12:40;;;;;;;37.63;29.90;;;8.50;99.90;;;;;;6255609;28;20486;-63
2023/01/04 08:15:44;;;;;;;27.17;24.20;;;8.70;99.90;;;;;;6250901;28;20946;-63
2023/01/04 08:18:48;;;;;;;30.53;27.33;;;8.80;99.90;;;;;;6250389;28;20544;-63
2023/01/04 08:21:51;;;;;;;29.90;26.70;;;8.80;99.90;;;;;;6241572;28;20474;-63
2023/01/04 08:24:54;;;;;;;32.57;28.80;;;8.90;99.90;;;;;;6256548;28;20469;-63
2023/01/04 08:27:58;;;;;;;30.10;26.50;;;8.90;99.90;;;;;;6299386;28;20949;-63
2023/01/04 08:31:05;;;;;;;25.13;22.63;;;8.90;99.90;;;;;;6299755;28;20484;-64
2023/01/04 08:34:09;;;;;;;28.10;23.57;;;9.00;99.90;;;;;;6299643;28;20547;-64
2023/01/04 08:37:13;;;;;;;26.90;24.10;;;9.10;99.90;;;;;;6299934;28;20495;-63
2023/01/04 08:40:16;;;;;;;27.73;24.80;;;9.10;99.90;;;;;;6299941;28;20800;-64
2023/01/04 08:43:19;;;;;;;26.27;23.57;;;9.20;99.90;;;;;;6300214;28;20472;-64
2023/01/04 08:46:24;;;;;;;25.93;23.13;;;9.20;99.90;;;;;;6299246;28;20480;-63
2023/01/04 08:49:27;;;;;;;27.50;24.57;;;9.20;99.90;;;;;;6299482;28;20493;-62
2023/01/04 08:52:30;;;;;;;27.07;24.27;;;9.30;99.90;;;;;;6299221;28;20477;-61
2023/01/04 08:55:33;;;;;;;28.90;26.00;;;9.10;99.90;;;;;;6299819;28;20473;-61
2023/01/04 08:58:38;;;;;;;29.47;25.70;;;9.10;99.90;;;;;;6299598;28;20473;-61
2023/01/04 09:01:42;;;;;;;26.90;24.20;;;8.90;99.90;;;;;;6299954;28;20480;-61
2023/01/04 09:04:46;;;;;;;28.03;25.30;;;8.80;99.90;;;;;;6299718;28;20532;-61
2023/01/04 09:07:49;;;;;;;32.47;29.00;;;8.80;99.90;;;;;;6298974;28;20477;-61
2023/01/04 09:10:52;;;;;;;33.10;30.00;;;8.70;99.90;;;;;;6294135;28;20485;-61
2023/01/04 09:13:56;;;;;;;26.80;23.97;;;8.70;99.90;;;;;;6267489;28;20471;-60
2023/01/04 09:17:10;;;;;;;28.50;25.50;;;8.70;99.90;;;;;;6273981;28;20478;-61
2023/01/04 09:20:13;;;;;;;26.30;23.70;;;8.70;99.90;;;;;;6291227;28;20478;-61
2023/01/04 09:23:17;;;;;;;27.07;23.87;;;8.70;99.90;;;;;;6276421;28;20474;-61
2023/01/04 09:26:22;;;;;;;26.30;23.80;;;8.70;99.90;;;;;;6275636;28;20496;-61
2023/01/04 09:29:26;;;;;;;28.00;25.20;;;8.80;99.90;;;;;;6278960;28;20822;-60
2023/01/04 09:32:30;;;;;;;25.90;23.40;;;8.90;99.90;;;;;;6278917;28;20470;-62
2023/01/04 09:35:34;;;;;;;26.03;23.33;;;8.90;99.90;;;;;;6278500;28;20476;-60
2023/01/04 09:38:37;;;;;;;25.90;23.43;;;9.00;99.90;;;;;;6278437;28;20482;-61
2023/01/04 09:41:47;;;;;;;23.63;21.00;;;9.10;99.90;;;;;;6278573;28;20477;-61
2023/01/04 09:44:55;;;;;;;21.50;19.33;;;9.20;99.90;;;;;;6278589;28;20473;-61
2023/01/04 09:48:24;;;;;;;22.43;20.17;;;9.30;99.90;;;;;;6279063;28;20553;-61
2023/01/04 09:51:38;;;;;;;21.67;18.20;;;9.40;99.90;;;;;;6278769;28;21056;-61
2023/01/04 09:54:47;;;;;;;20.00;17.00;;;9.40;99.90;;;;;;6279342;28;20470;-61
2023/01/04 09:57:54;;;;;;;17.53;15.80;;;9.50;99.90;;;;;;6279608;28;20973;-61
2023/01/04 10:01:03;;;;;;;20.97;17.00;;;9.50;99.90;;;;;;6278796;28;20481;-60
2023/01/04 10:04:17;;;;;;;18.07;16.20;;;9.60;99.90;;;;;;6278491;28;20477;-60
2023/01/04 10:07:27;;;;;;;21.27;17.97;;;9.60;99.90;;;;;;6278265;28;20478;-61
2023/01/04 10:10:48;;;;;;;19.70;17.70;;;9.70;99.90;;;;;;6277821;28;20806;-61
2023/01/04 10:14:13;;;;;;;18.33;16.43;;;9.80;99.90;;;;;;6278219;28;20474;-62
2023/01/04 10:17:28;;;;;;;19.23;15.67;;;9.80;99.90;;;;;;6278288;28;20463;-62
2023/01/04 10:21:07;;;;;;;16.83;15.00;;;9.80;99.90;;;;;;6277565;28;20469;-62
2023/01/04 10:24:44;;;;;;;15.87;14.40;;;10.00;99.90;;;;;;6278751;28;20938;-62
2023/01/04 10:28:00;;;;;;;15.40;13.97;;;10.10;99.90;;;;;;6244379;28;20466;-62
2023/01/04 10:31:12;;;;;;;16.37;14.70;;;10.10;99.90;;;;;;6253175;28;20475;-62
2023/01/04 10:34:41;;;;;;;14.50;12.00;;;10.20;99.90;;;;;;6277722;28;20462;-62
2023/01/04 10:37:48;;;;;;;15.37;13.77;;;10.20;99.90;;;;;;6277009;28;20795;-62
2023/01/04 10:40:52;;;;;;;15.87;14.30;;;10.30;99.90;;;;;;6277260;28;20588;-62
2023/01/04 10:44:04;;;;;;;13.93;12.63;;;10.40;99.90;;;;;;6277056;28;20473;-62
2023/01/04 10:47:22;;;;;;;13.07;11.77;;;10.50;99.90;;;;;;6277137;28;20556;-62
2023/01/04 10:50:33;;;;;;;13.70;12.40;;;10.60;99.90;;;;;;6277251;28;20465;-63
2023/01/04 10:53:43;;;;;;;13.80;12.33;;;10.50;99.90;;;;;;6276625;28;20965;-63
2023/01/04 10:56:53;;;;;;;14.03;12.60;;;10.60;99.90;;;;;;6269581;28;20509;-61
2023/01/04 11:00:01;;;;;;;13.73;12.30;;;10.60;99.90;;;;;;6258460;28;20463;-60
2023/01/04 11:03:10;;;;;;;13.40;12.10;;;10.70;99.90;;;;;;6252308;28;20431;-61
2023/01/04 11:06:18;;;;;;;11.23;9.87;;;10.90;99.90;;;;;;6251887;28;20553;-60
2023/01/04 11:09:24;;;;;;;10.17;9.23;;;11.00;99.90;;;;;;6251430;28;20545;-59
2023/01/04 11:12:28;;;;;;;9.60;8.70;;;11.10;99.90;;;;;;6270122;28;20462;-62
2023/01/04 11:15:32;;;;;;;10.73;9.67;;;11.30;99.90;;;;;;6276275;28;20907;-62
2023/01/04 11:18:39;;;;;;;10.20;9.20;;;11.40;99.90;;;;;;6276186;28;20942;-62
2023/01/04 11:21:47;;;;;;;10.17;9.17;;;11.90;99.90;;;;;;6276907;28;20477;-63
2023/01/04 11:24:56;;;;;;;8.90;7.97;;;14.40;99.90;;;;;;6278792;28;20477;-64
2023/01/04 11:28:23;;;;;;;8.93;8.13;;;18.80;97.90;;;;;;6256375;28;20478;-64
2023/01/04 11:31:45;;;;;;;7.97;7.20;;;20.60;90.00;;;;;;6255829;28;20478;-62
2023/01/04 11:34:51;;;;;;;8.80;8.00;;;19.70;84.40;;;;;;6275491;28;20236;-62
2023/01/04 11:38:12;;;;;;;7.57;6.67;;;18.40;87.40;;;;;;6269057;28;20572;-64
2023/01/04 11:41:20;;;;;;;6.83;6.20;;;19.60;89.40;;;;;;6260455;28;20496;-62
2023/01/04 11:44:24;;;;;;;7.53;6.83;;;22.80;75.80;;;;;;6265645;28;20660;-62
2023/01/04 11:47:27;;;;;;;6.80;6.20;;;25.10;62.00;;;;;;6250548;28;20599;-62
2023/01/04 11:50:41;;;;;;;6.63;6.13;;;27.00;53.30;;;;;;6268357;28;20219;-62
2023/01/04 11:53:45;;;;;;;7.70;7.00;;;29.70;47.10;;;;;;6275579;28;20670;-63
2023/01/04 11:57:01;;;;;;;8.50;7.57;;;31.20;39.00;;;;;;6275265;28;20231;-63
2023/01/04 12:00:25;;;;;;;8.70;8.00;;;32.30;34.80;;;;;;6275262;28;20336;-63
2023/01/04 12:03:30;;;;;;;9.47;8.67;;;31.40;34.30;;;;;;6273544;28;20223;-61
2023/01/04 12:06:38;;;;;;;7.43;6.93;;;31.30;33.70;;;;;;6273572;28;20237;-61
2023/01/04 12:09:42;;;;;;;8.37;7.70;;;28.70;35.50;;;;;;6269305;28;20227;-60
2023/01/04 12:12:47;;;;;;;9.53;8.60;;;26.70;39.20;;;;;;6264561;28;20235;-60
2023/01/04 12:16:02;;;;;;;10.60;9.60;;;26.10;40.80;;;;;;6259487;28;20672;-60
2023/01/04 12:19:05;;;;;;;8.57;7.87;;;27.60;39.70;;;;;;6261737;28;20743;-61
2023/01/04 12:22:21;;;;;;;8.97;8.27;;;29.00;36.70;;;;;;6269431;28;20226;-62
2023/01/04 12:25:36;;;;;;;8.80;7.97;;;30.50;35.40;;;;;;6276311;28;20789;-61
2023/01/04 12:28:43;;;;;;;10.07;9.03;;;30.60;33.50;;;;;;6258687;28;20228;-63
2023/01/04 12:31:46;;;;;;;9.13;8.23;;;30.00;33.70;;;;;;6260029;28;20230;-62
2023/01/04 12:34:49;;;;;;;8.80;7.90;;;28.70;35.90;;;;;;6258372;28;20226;-63
2023/01/04 12:37:53;;;;;;;10.50;9.50;;;29.40;35.60;;;;;;6265052;28;20254;-63
2023/01/04 12:40:56;;;;;;;8.47;7.67;;;30.30;33.80;;;;;;6260522;28;20230;-61
2023/01/04 12:44:01;;;;;;;10.73;7.90;;;30.60;33.60;;;;;;6264052;28;20223;-60
2023/01/04 12:51:19;;;;;;;7.90;7.20;;;32.50;30.60;;;;;;6249480;28;20243;-61
2023/01/04 12:54:46;;;;;;;7.95;7.25;;;33.10;29.60;;;;;;6249396;28;20664;-61
2023/01/04 12:57:50;;;;;;;8.27;7.53;;;33.70;28.90;;;;;;6249426;28;20691;-60
2023/01/04 13:01:23;;;;;;;7.00;6.40;;;33.80;28.20;;;;;;6249653;28;20235;-61
2023/01/04 13:04:30;;;;;;;7.47;6.80;;;33.60;28.00;;;;;;6249478;28;20260;-62
2023/01/04 13:07:42;;;;;;;6.47;5.88;;;33.30;28.00;;;;;;6248609;28;20579;-64
2023/01/04 13:10:50;;;;;;;6.50;6.00;;;32.50;28.10;;;;;;6249356;28;20238;-62
2023/01/04 13:14:00;;;;;;;7.30;6.60;;;30.80;28.90;;;;;;6290282;28;20226;-61
2023/01/04 13:17:23;;;;;;;8.00;7.30;;;29.20;31.00;;;;;;6298631;28;20541;-62
2023/01/04 13:20:29;;;;;;;7.60;6.60;;;27.70;33.60;;;;;;6298795;28;20234;-62
2023/01/04 13:23:32;;;;;;;6.40;5.90;;;28.10;33.90;;;;;;6298869;28;20230;-63
2023/01/04 13:26:41;;;;;;;6.13;5.60;;;28.70;33.00;;;;;;6281767;28;20551;-62
2023/01/04 13:29:46;;;;;;;5.47;4.93;;;29.50;32.00;;;;;;6273951;28;20242;-62
2023/01/04 13:32:51;;;;;;;5.57;5.17;;;29.90;31.00;;;;;;6273463;28;20235;-62
2023/01/04 13:36:15;;;;;;;7.17;6.47;;;29.30;31.20;;;;;;6278618;28;20313;-61
2023/01/04 13:39:19;;;;;;;6.87;6.20;;;28.20;33.20;;;;;;6282008;28;20713;-62
2023/01/04 13:42:27;;;;;;;8.23;6.90;;;28.30;33.20;;;;;;6274411;28;20242;-62
2023/01/04 13:46:06;;;;;;;7.63;7.03;;;27.60;33.70;;;;;;6274115;28;20227;-61
2023/01/04 13:49:16;;;;;;;8.20;7.30;;;26.70;35.70;;;;;;6273611;28;20606;-63
2023/01/04 13:52:22;;;;;;;7.30;6.70;;;26.90;36.20;;;;;;6274087;28;20234;-61
2023/01/04 13:55:50;;;;;;;6.80;6.30;;;27.60;35.10;;;;;;6273754;28;20322;-62
2023/01/04 13:58:54;;;;;;;7.30;6.70;;;28.00;34.50;;;;;;6273865;28;20242;-62
2023/01/04 14:01:57;;;;;;;7.40;6.60;;;28.00;34.30;;;;;;6273712;28;20235;-62
2023/01/04 14:05:02;;;;;;;6.70;6.20;;;28.60;33.80;;;;;;6273622;28;20234;-61
2023/01/04 14:08:11;;;;;;;7.77;7.17;;;28.50;33.60;;;;;;6278034;28;20244;-61
2023/01/04 14:11:57;;;;;;;8.33;7.53;;;27.80;34.00;;;;;;6277821;28;20242;-64
2023/01/04 14:14:50;;;;;;;7.80;7.10;;;26.90;35.30;;;;;;6252997;28;20292;-64
2023/01/04 14:17:54;;;;;;;8.17;7.47;;;25.50;37.20;;;;;;6253268;28;20602;-63
2023/01/04 14:20:59;;;;;;;7.83;7.13;;;24.40;39.40;;;;;;6258565;28;20204;-64
2023/01/04 14:24:02;;;;;;;8.63;7.93;;;23.70;40.10;;;;;;6278247;28;20200;-64
2023/01/04 14:27:29;;;;;;;8.17;7.47;;;23.00;41.40;;;;;;6280747;28;20214;-63
2023/01/04 14:30:32;;;;;;;7.43;6.73;;;22.00;43.30;;;;;;6278111;28;20528;-63
2023/01/04 14:33:41;;;;;;;8.03;7.30;;;21.00;44.90;;;;;;6277223;28;20539;-64
2023/01/04 14:36:46;;;;;;;8.23;7.43;;;20.20;46.80;;;;;;6277350;28;20242;-63
2023/01/04 14:39:49;;;;;;;7.70;7.10;;;19.40;48.50;;;;;;6277006;28;20567;-63
2023/01/04 14:42:52;;;;;;;8.03;7.43;;;18.60;50.20;;;;;;6267980;28;20228;-63
2023/01/04 14:45:55;;;;;;;9.13;8.07;;;17.70;52.50;;;;;;6277182;28;20488;-63
2023/01/04 14:48:59;;;;;;;7.83;7.07;;;17.00;54.00;;;;;;6277196;28;20597;-64
2023/01/04 14:52:09;;;;;;;7.93;7.23;;;16.50;55.60;;;;;;6277422;28;20477;-63
2023/01/04 14:55:13;;;;;;;8.57;7.70;;;16.00;57.10;;;;;;6276965;28;20478;-63
2023/01/04 14:58:16;;;;;;;8.73;7.50;;;15.50;58.80;;;;;;6276602;28;20553;-63
2023/01/04 15:01:20;;;;;;;7.60;6.83;;;15.10;60.40;;;;;;6275542;28;20474;-63
2023/01/04 15:04:23;;;;;;;7.90;7.20;;;14.80;62.60;;;;;;6275709;28;20801;-63
2023/01/04 15:07:35;;;;;;;10.43;8.67;;;14.40;64.80;;;;;;6280678;28;20482;-63
2023/01/04 15:10:38;;;;;;;9.97;7.73;;;14.10;67.40;;;;;;6295593;28;20473;-64
2023/01/04 15:13:43;;;;;;;9.23;8.33;;;13.80;70.00;;;;;;6288255;28;20501;-63
2023/01/04 15:16:47;;;;;;;10.43;7.50;;;13.50;73.00;;;;;;6275724;28;20968;-63
2023/01/04 15:19:50;;;;;;;10.63;8.67;;;13.30;76.40;;;;;;6276302;28;20481;-64
2023/01/04 15:22:54;;;;;;;11.27;10.17;;;13.10;79.50;;;;;;6276934;28;20957;-64
2023/01/04 15:26:00;;;;;;;11.13;9.90;;;12.90;83.10;;;;;;6277656;28;20471;-63
2023/01/04 15:29:05;;;;;;;12.80;10.63;;;12.80;86.20;;;;;;6264096;28;20478;-63
2023/01/04 15:32:09;;;;;;;10.77;9.67;;;12.60;89.30;;;;;;6272503;28;20820;-63
2023/01/04 15:35:15;;;;;;;12.17;10.73;;;12.40;91.20;;;;;;6271107;28;20541;-64
2023/01/04 15:38:19;;;;;;;12.17;10.90;;;12.30;92.20;;;;;;6262767;28;20475;-63
2023/01/04 15:44:44;;;;;;;7.77;7.13;;;12.10;94.00;;;;;;6262179;28;20478;-62
2023/01/04 15:47:47;;;;;;;10.57;9.00;;;12.00;94.80;;;;;;6265290;28;20486;-63
2023/01/04 15:50:50;;;;;;;13.77;12.33;;;11.90;95.90;;;;;;6256929;28;20489;-62
2023/01/04 15:53:55;;;;;;;24.60;22.10;;;11.80;96.30;;;;;;6257431;28;20796;-62
2023/01/04 15:56:58;;;;;;;21.77;19.67;;;11.70;97.00;;;;;;6254861;28;20552;-61
2023/01/04 16:00:02;;;;;;;18.70;16.80;;;11.60;97.40;;;;;;6272612;28;20450;-63
2023/01/04 16:03:06;;;;;;;15.40;13.97;;;11.50;98.00;;;;;;6275108;28;20929;-63
2023/01/04 16:06:12;;;;;;;14.40;12.90;;;11.30;98.50;;;;;;6275570;28;20517;-63
2023/01/04 16:09:16;;;;;;;14.33;13.03;;;11.20;99.20;;;;;;6261401;28;20459;-65
2023/01/04 16:15:40;;;;;;;13.00;11.90;;;11.00;99.90;;;;;;6274774;28;20815;-62
2023/01/04 16:18:46;;;;;;;11.23;10.17;;;10.90;99.90;;;;;;6274930;28;20470;-62
2023/01/04 16:21:49;;;;;;;11.93;10.27;;;10.80;99.90;;;;;;6274655;28;20922;-62
2023/01/04 16:24:53;;;;;;;16.00;10.90;;;10.80;99.90;;;;;;6274236;28;20469;-62
2023/01/04 16:28:14;;;;;;;14.63;13.17;;;10.80;99.90;;;;;;6249876;28;20525;-62
2023/01/04 16:31:17;;;;;;;13.23;11.83;;;10.80;99.90;;;;;;6253189;28;20466;-63
2023/01/04 16:34:21;;;;;;;14.40;11.43;;;10.70;99.90;;;;;;6274872;28;20527;-62
2023/01/04 16:37:26;;;;;;;13.80;12.30;;;10.60;99.90;;;;;;6272438;28;20470;-62
2023/01/04 16:40:31;;;;;;;13.67;12.20;;;10.60;99.90;;;;;;6252706;28;20501;-63
2023/01/04 16:43:43;;;;;;;14.97;12.13;;;10.60;99.90;;;;;;6249701;28;20471;-63
2023/01/04 16:46:46;;;;;;;14.43;12.93;;;10.50;99.90;;;;;;6250007;28;20471;-63
2023/01/04 16:49:53;;;;;;;11.23;10.10;;;10.50;99.90;;;;;;6249704;28;20501;-62
2023/01/04 16:52:56;;;;;;;14.10;12.67;;;10.50;99.90;;;;;;6269084;28;20815;-61
2023/01/04 16:56:04;;;;;;;15.47;12.90;;;10.50;99.90;;;;;;6273902;28;20485;-59